createdAt,value
2023-03-22T00:01:21.910Z,97382.88
2023-03-22T00:04:26.036Z,97373.22
2023-03-22T00:07:30.073Z,97377.94
2023-03-22T00:10:34.188Z,97391.59
2023-03-22T00:13:38.136Z,97387.81
2023-03-22T00:16:41.860Z,97385.63
2023-03-22T00:19:46.093Z,97388.41
2023-03-22T00:22:49.992Z,97390.28
2023-03-22T00:25:54.358Z,97394.75
2023-03-22T00:28:58.413Z,97390.50
2023-03-22T00:32:02.125Z,97378.28
2023-03-22T00:35:05.964Z,97379.63
2023-03-22T00:38:09.825Z,97377.72
2023-03-22T00:41:13.877Z,97385.41
2023-03-22T00:44:17.987Z,97381.47
2023-03-22T00:47:22.080Z,97379.19
2023-03-22T00:50:26.544Z,97381.50
2023-03-22T00:53:30.440Z,97384.91
2023-03-22T00:56:34.352Z,97377.03
2023-03-22T00:59:38.603Z,97371.44
2023-03-22T01:02:42.596Z,97368.81
2023-03-22T01:05:46.813Z,97357.13
2023-03-22T01:08:51.060Z,97350.63
2023-03-22T01:11:54.714Z,97354.47
2023-03-22T01:14:58.863Z,97345.13
2023-03-22T01:18:03.184Z,97343.53
2023-03-22T01:21:07.543Z,97333.69
2023-03-22T01:24:11.412Z,97339.88
2023-03-22T01:27:15.209Z,97331.50
2023-03-22T01:30:19.212Z,97334.13
2023-03-22T01:33:23.305Z,97326.59
2023-03-22T01:36:27.385Z,97331.97
2023-03-22T01:39:31.523Z,97334.00
2023-03-22T01:42:37.422Z,97338.72
2023-03-22T01:45:41.374Z,97330.94
2023-03-22T01:48:45.580Z,97320.97
2023-03-22T01:51:49.572Z,97314.47
2023-03-22T01:54:53.542Z,97315.16
2023-03-22T01:57:57.396Z,97316.97
2023-03-22T02:01:01.375Z,97322.03
2023-03-22T02:04:05.306Z,97327.25
2023-03-22T02:07:09.284Z,97321.63
2023-03-22T02:10:14.898Z,97319.38
2023-03-22T02:13:21.672Z,97322.13
2023-03-22T02:16:25.735Z,97307.97
2023-03-22T02:19:29.975Z,97305.97
2023-03-22T02:22:33.662Z,97299.81
2023-03-22T02:25:37.424Z,97297.34
2023-03-22T02:28:41.686Z,97307.34
2023-03-22T02:31:45.583Z,97296.06
2023-03-22T02:34:51.019Z,97305.25
2023-03-22T02:37:55.265Z,97297.47
2023-03-22T02:40:58.878Z,97289.69
2023-03-22T02:44:02.761Z,97291.47
2023-03-22T02:47:06.491Z,97299.50
2023-03-22T02:50:10.576Z,97296.50
2023-03-22T02:53:14.722Z,97307.25
2023-03-22T02:56:18.763Z,97308.41
2023-03-22T02:59:22.707Z,97311.91
2023-03-22T03:02:26.837Z,97308.09
2023-03-22T03:05:31.100Z,97309.38
2023-03-22T03:08:34.722Z,97312.00
2023-03-22T03:11:38.748Z,97315.84
2023-03-22T03:14:42.623Z,97309.91
2023-03-22T03:17:46.815Z,97315.13
2023-03-22T03:20:50.828Z,97313.19
2023-03-22T03:23:54.672Z,97313.09
2023-03-22T03:27:01.932Z,97309.53
2023-03-22T03:30:05.827Z,97314.69
2023-03-22T03:33:09.994Z,97313.78
2023-03-22T03:36:14.328Z,97309.44
2023-03-22T03:39:17.886Z,97312.06
2023-03-22T03:42:21.825Z,97314.84
2023-03-22T03:45:25.959Z,97314.16
2023-03-22T03:48:30.253Z,97316.50
2023-03-22T03:51:34.182Z,97313.03
2023-03-22T03:54:37.985Z,97311.38
2023-03-22T03:57:42.250Z,97321.09
2023-03-22T04:00:46.523Z,97327.25
2023-03-22T04:03:50.384Z,97332.28
2023-03-22T04:06:54.007Z,97330.97
2023-03-22T04:09:58.264Z,97330.69
2023-03-22T04:13:02.199Z,97336.50
2023-03-22T04:16:06.388Z,97332.63
2023-03-22T04:19:10.356Z,97339.72
2023-03-22T04:22:14.326Z,97332.19
2023-03-22T04:25:18.402Z,97331.25
2023-03-22T04:28:22.361Z,97336.22
2023-03-22T04:31:26.481Z,97332.47
2023-03-22T04:34:30.370Z,97327.25
2023-03-22T04:37:34.220Z,97337.59
2023-03-22T04:40:38.618Z,97325.97
2023-03-22T04:43:42.534Z,97323.28
2023-03-22T04:46:46.643Z,97334.72
2023-03-22T04:49:50.437Z,97339.47
2023-03-22T04:52:54.422Z,97329.53
2023-03-22T04:55:58.798Z,97320.78
2023-03-22T04:59:03.012Z,97326.91
2023-03-22T05:02:06.903Z,97325.19
2023-03-22T05:05:10.904Z,97325.25
2023-03-22T05:08:15.081Z,97327.91
2023-03-22T05:11:18.915Z,97326.44
2023-03-22T05:14:23.239Z,97328.69
2023-03-22T05:17:30.239Z,97327.56
2023-03-22T05:20:34.230Z,97324.56
2023-03-22T05:23:37.863Z,97324.09
2023-03-22T05:26:42.934Z,97331.19
2023-03-22T05:29:47.303Z,97332.81
2023-03-22T05:32:51.271Z,97332.00
2023-03-22T05:35:55.146Z,97339.00
2023-03-22T05:38:59.109Z,97337.09
2023-03-22T05:42:05.353Z,97341.97
2023-03-22T05:45:09.799Z,97341.31
2023-03-22T05:48:14.159Z,97330.00
2023-03-22T05:51:17.880Z,97339.56
2023-03-22T05:54:21.767Z,97337.50
2023-03-22T05:57:27.058Z,97341.59
2023-03-22T06:00:31.704Z,97340.22
2023-03-22T06:03:35.785Z,97335.03
2023-03-22T06:06:39.666Z,97342.06
2023-03-22T06:09:45.830Z,97348.00
2023-03-22T06:12:49.903Z,97344.78
2023-03-22T06:15:54.052Z,97353.44
2023-03-22T06:18:58.282Z,97357.84
2023-03-22T06:22:02.311Z,97347.88
2023-03-22T06:25:06.071Z,97359.03
2023-03-22T06:28:10.368Z,97355.94
2023-03-22T06:31:14.237Z,97347.88
2023-03-22T06:34:18.068Z,97352.41
2023-03-22T06:37:21.872Z,97347.34
2023-03-22T06:40:25.742Z,97352.38
2023-03-22T06:43:29.817Z,97343.50
2023-03-22T06:46:33.918Z,97342.91
2023-03-22T06:49:37.769Z,97351.28
2023-03-22T06:56:12.282Z,97341.63
2023-03-22T06:59:16.309Z,97346.97
2023-03-22T07:02:31.564Z,97344.19
2023-03-22T07:05:58.645Z,97342.28
2023-03-22T07:15:59.842Z,97353.78
2023-03-22T07:19:14.529Z,97351.19
2023-03-22T07:22:24.201Z,97355.41
2023-03-22T07:25:30.524Z,97359.06
2023-03-22T07:28:40.258Z,97359.53
2023-03-22T07:31:48.109Z,97355.59
2023-03-22T07:45:38.786Z,97360.34
2023-03-22T07:48:45.267Z,97360.59
2023-03-22T07:55:25.941Z,97368.22
2023-03-22T07:58:30.795Z,97358.06
2023-03-22T08:05:12.616Z,97372.16
2023-03-22T08:11:45.503Z,97374.25
2023-03-22T08:14:54.499Z,97377.44
2023-03-22T08:18:01.184Z,97373.28
2023-03-22T08:21:07.081Z,97374.34
2023-03-22T08:24:14.383Z,97379.13
2023-03-22T08:27:27.148Z,97374.03
2023-03-22T08:30:36.908Z,97379.63
2023-03-22T08:33:41.693Z,97375.88
2023-03-22T08:36:54.820Z,97372.81
2023-03-22T08:46:54.537Z,97377.47
2023-03-22T08:50:00.288Z,97373.56
2023-03-22T08:53:09.199Z,97371.78
2023-03-22T08:56:19.656Z,97366.47
2023-03-22T08:59:29.588Z,97367.31
2023-03-22T09:05:58.756Z,97360.31
2023-03-22T09:09:07.448Z,97366.66
2023-03-22T09:12:16.901Z,97364.13
2023-03-22T09:15:21.515Z,97368.19
2023-03-22T09:18:38.382Z,97361.78
2023-03-22T09:21:42.492Z,97376.88
2023-03-22T09:24:46.440Z,97370.19
2023-03-22T09:27:52.762Z,97361.00
2023-03-22T09:30:57.134Z,97363.19
2023-03-22T09:34:01.107Z,97359.53
2023-03-22T09:37:04.973Z,97365.13
2023-03-22T09:40:09.494Z,97358.84
2023-03-22T09:43:13.703Z,97342.28
2023-03-22T09:46:17.945Z,97341.00
2023-03-22T09:49:22.021Z,97339.88
2023-03-22T09:52:25.753Z,97331.22
2023-03-22T09:55:29.812Z,97333.47
2023-03-22T09:58:33.690Z,97328.97
2023-03-22T10:01:39.328Z,97328.94
2023-03-22T10:04:43.526Z,97326.59
2023-03-22T10:07:47.452Z,97334.19
2023-03-22T10:10:51.807Z,97332.56
2023-03-22T10:13:55.847Z,97330.56
2023-03-22T10:16:59.882Z,97320.84
2023-03-22T10:20:04.146Z,97324.38
2023-03-22T10:23:07.989Z,97327.00
2023-03-22T10:26:11.931Z,97317.38
2023-03-22T10:29:15.956Z,97315.25
2023-03-22T10:32:19.968Z,97308.53
2023-03-22T10:35:23.812Z,97312.25
2023-03-22T10:38:27.846Z,97309.97
2023-03-22T10:41:31.589Z,97318.47
2023-03-22T10:44:35.840Z,97308.34
2023-03-22T10:47:39.980Z,97305.06
2023-03-22T10:50:44.142Z,97305.81
2023-03-22T10:53:48.105Z,97307.34
2023-03-22T10:56:52.088Z,97301.34
2023-03-22T10:59:55.887Z,97294.41
2023-03-22T11:02:59.879Z,97304.13
2023-03-22T11:06:04.044Z,97293.16
2023-03-22T11:09:08.329Z,97278.22
2023-03-22T11:12:12.381Z,97272.63
2023-03-22T11:15:16.596Z,97271.50
2023-03-22T11:18:20.406Z,97265.34
2023-03-22T11:21:25.470Z,97268.56
2023-03-22T11:24:30.930Z,97256.41
2023-03-22T11:27:35.058Z,97251.97
2023-03-22T11:30:39.651Z,97251.63
2023-03-22T11:33:43.513Z,97247.47
2023-03-22T11:39:52.810Z,97244.63
2023-03-22T11:42:57.133Z,97239.81
2023-03-22T11:46:01.451Z,97233.41
2023-03-22T11:49:05.583Z,97240.25
2023-03-22T11:52:09.809Z,97232.63
2023-03-22T11:55:13.993Z,97231.28
2023-03-22T11:58:18.004Z,97230.91
2023-03-22T12:01:22.135Z,97225.94
2023-03-22T12:04:25.845Z,97225.94
2023-03-22T12:07:29.750Z,97223.53
2023-03-22T12:10:36.131Z,97214.53
2023-03-22T12:13:40.277Z,97212.06
2023-03-22T12:16:44.361Z,97207.66
2023-03-22T12:19:48.390Z,97201.97
2023-03-22T12:22:52.319Z,97190.50
2023-03-22T12:25:57.168Z,97191.25
2023-03-22T12:29:01.210Z,97188.72
2023-03-22T12:32:05.085Z,97186.28
2023-03-22T12:35:17.169Z,97178.69
2023-03-22T12:38:22.006Z,97177.03
2023-03-22T12:41:25.857Z,97177.84
2023-03-22T12:44:29.773Z,97173.38
2023-03-22T12:47:33.923Z,97160.13
2023-03-22T12:50:38.292Z,97157.00
2023-03-22T12:53:42.070Z,97153.81
2023-03-22T12:56:46.115Z,97147.72
2023-03-22T12:59:50.336Z,97147.47
2023-03-22T13:02:54.695Z,97156.50
2023-03-22T13:05:58.657Z,97153.88
2023-03-22T13:09:02.504Z,97152.00
2023-03-22T13:12:06.816Z,97136.88
2023-03-22T13:15:10.374Z,97139.25
2023-03-22T13:18:14.486Z,97142.97
2023-03-22T13:21:18.508Z,97132.09
2023-03-22T13:24:22.322Z,97125.19
2023-03-22T13:27:26.532Z,97123.81
2023-03-22T13:30:32.894Z,97120.41
2023-03-22T13:33:37.537Z,97113.03
2023-03-22T13:36:41.430Z,97113.25
2023-03-22T13:39:47.258Z,97108.75
2023-03-22T13:42:51.592Z,97088.88
2023-03-22T13:45:55.785Z,97092.03
2023-03-22T13:49:00.966Z,97082.47
2023-03-22T13:52:05.256Z,97075.25
2023-03-22T13:55:09.184Z,97072.84
2023-03-22T13:58:13.059Z,97068.91
2023-03-22T14:01:17.273Z,97072.31
2023-03-22T14:04:21.286Z,97064.00
2023-03-22T14:07:25.259Z,97070.06
2023-03-22T14:10:29.225Z,97064.16
2023-03-22T14:13:33.287Z,97067.88
2023-03-22T14:16:37.355Z,97062.31
2023-03-22T14:19:41.251Z,97051.16
